createdAt,value
2019-02-24T00:01:52.130Z,1.80
2019-02-24T00:04:21.894Z,1.80
2019-02-24T00:06:51.812Z,1.70
2019-02-24T00:09:21.740Z,1.70
2019-02-24T00:11:51.587Z,1.60
2019-02-24T00:14:21.469Z,1.60
2019-02-24T00:16:51.393Z,1.50
2019-02-24T00:19:21.226Z,1.50
2019-02-24T00:21:51.118Z,1.50
2019-02-24T00:24:21.008Z,1.50
2019-02-24T00:26:51.056Z,1.50
2019-02-24T00:29:20.884Z,1.40
2019-02-24T00:31:50.743Z,1.40
2019-02-24T00:34:20.675Z,1.40
2019-02-24T00:36:50.574Z,1.40
2019-02-24T00:39:20.426Z,1.40
2019-02-24T00:41:50.266Z,1.30
2019-02-24T00:44:20.010Z,1.30
2019-02-24T00:46:50.540Z,1.30
2019-02-24T00:49:20.335Z,1.30
2019-02-24T00:51:50.119Z,1.30
2019-02-24T00:54:19.855Z,1.30
2019-02-24T00:56:49.666Z,1.30
2019-02-24T00:59:19.588Z,1.20
2019-02-24T01:01:49.565Z,1.20
2019-02-24T01:04:19.575Z,1.30
2019-02-24T01:06:49.569Z,1.30
2019-02-24T01:09:19.546Z,1.30
2019-02-24T01:11:49.551Z,1.30
2019-02-24T01:14:19.431Z,1.40
2019-02-24T01:16:49.407Z,1.40
2019-02-24T01:19:19.402Z,1.40
2019-02-24T01:21:49.299Z,1.50
2019-02-24T01:24:19.275Z,1.60
2019-02-24T01:26:49.131Z,1.70
2019-02-24T01:29:18.899Z,1.80
2019-02-24T01:31:48.628Z,1.90
2019-02-24T01:34:18.420Z,1.90
2019-02-24T01:36:48.205Z,1.90
2019-02-24T01:39:17.903Z,1.80
2019-02-24T01:41:47.683Z,1.80
2019-02-24T01:44:17.493Z,1.90
2019-02-24T01:46:47.204Z,1.80
2019-02-24T01:49:16.993Z,1.70
2019-02-24T01:51:46.732Z,1.60
2019-02-24T01:54:16.547Z,1.60
2019-02-24T01:56:46.355Z,1.60
2019-02-24T01:59:16.166Z,1.70
2019-02-24T02:01:45.877Z,1.70
2019-02-24T02:04:15.605Z,1.70
2019-02-24T02:06:45.357Z,1.60
2019-02-24T02:09:15.151Z,1.60
2019-02-24T02:11:44.941Z,1.50
2019-02-24T02:14:14.695Z,1.40
2019-02-24T02:16:44.828Z,1.40
2019-02-24T02:19:14.761Z,1.30
2019-02-24T02:21:44.695Z,1.20
2019-02-24T02:24:14.685Z,1.10
2019-02-24T02:26:44.492Z,1.10
2019-02-24T02:29:14.457Z,1.10
2019-02-24T02:31:44.356Z,1.00
2019-02-24T02:34:14.151Z,1.00
2019-02-24T02:36:43.997Z,0.90
2019-02-24T02:42:46.101Z,0.80
2019-02-24T02:45:15.896Z,0.80
2019-02-24T02:47:45.786Z,0.80
2019-02-24T02:50:15.589Z,0.80
2019-02-24T02:52:45.350Z,0.80
2019-02-24T02:55:15.595Z,0.70
2019-02-24T02:57:45.429Z,0.80
2019-02-24T03:00:29.224Z,0.70
2019-02-24T03:02:59.244Z,0.70
2019-02-24T03:05:29.112Z,0.60
2019-02-24T03:08:10.592Z,0.50
2019-02-24T03:10:40.548Z,0.50
2019-02-24T03:13:10.540Z,0.40
2019-02-24T03:15:40.556Z,0.40
2019-02-24T03:18:10.528Z,0.40
2019-02-24T03:20:40.418Z,0.40
2019-02-24T03:23:10.435Z,0.30
2019-02-24T03:25:40.398Z,0.30
2019-02-24T03:28:10.320Z,0.30
2019-02-24T03:30:40.176Z,0.30
2019-02-24T03:33:10.011Z,0.30
2019-02-24T03:35:39.758Z,0.20
2019-02-24T03:38:09.716Z,0.20
2019-02-24T03:40:39.576Z,0.10
2019-02-24T03:43:09.485Z,0.10
2019-02-24T03:45:41.324Z,0.10
2019-02-24T03:48:11.080Z,0.10
2019-02-24T03:50:40.817Z,0.10
2019-02-24T03:53:10.574Z,0.10
2019-02-24T03:55:40.285Z,0.10
2019-02-24T03:58:10.018Z,0.00
2019-02-24T04:00:39.800Z,0.00
2019-02-24T04:03:09.584Z,-0.10
2019-02-24T04:05:39.400Z,-0.10
2019-02-24T04:08:09.214Z,-0.10
2019-02-24T04:10:39.033Z,-0.10
2019-02-24T04:13:09.127Z,-0.20
2019-02-24T04:15:38.992Z,-0.20
2019-02-24T04:18:08.822Z,-0.20
2019-02-24T04:20:38.704Z,-0.20
2019-02-24T04:23:08.501Z,-0.20
2019-02-24T04:25:38.238Z,-0.20
2019-02-24T04:28:08.006Z,-0.20
2019-02-24T04:30:37.792Z,-0.20
2019-02-24T04:33:07.563Z,-0.20
2019-02-24T04:35:37.514Z,-0.20
2019-02-24T04:38:07.398Z,-0.20
2019-02-24T04:40:37.205Z,-0.20
2019-02-24T04:43:07.016Z,-0.20
2019-02-24T04:45:36.805Z,-0.20
2019-02-24T04:48:06.984Z,-0.30
2019-02-24T04:50:36.947Z,-0.30
2019-02-24T04:53:06.971Z,-0.30
2019-02-24T04:55:36.759Z,-0.20
2019-02-24T04:58:06.751Z,-0.30
2019-02-24T05:00:36.668Z,-0.30
2019-02-24T05:03:06.545Z,-0.30
2019-02-24T05:05:36.353Z,-0.20
2019-02-24T05:08:06.564Z,-0.20
2019-02-24T05:10:36.410Z,-0.20
2019-02-24T05:13:06.199Z,-0.20
2019-02-24T05:15:36.051Z,-0.20
2019-02-24T05:18:06.012Z,-0.20
2019-02-24T05:20:37.077Z,-0.30
2019-02-24T05:23:06.956Z,-0.30
2019-02-24T05:25:36.706Z,-0.30
2019-02-24T05:28:06.649Z,-0.30
2019-02-24T05:30:36.769Z,-0.20
2019-02-24T05:33:09.304Z,-0.30
2019-02-24T05:35:39.208Z,-0.20
2019-02-24T05:38:09.231Z,-0.30
2019-02-24T05:40:42.500Z,-0.40
2019-02-24T05:43:12.403Z,-0.40
2019-02-24T05:45:42.283Z,-0.50
2019-02-24T05:48:12.220Z,-0.50
2019-02-24T05:50:42.082Z,-0.50
2019-02-24T05:53:11.997Z,-0.60
2019-02-24T05:55:42.446Z,-0.60
2019-02-24T05:58:12.337Z,-0.60
2019-02-24T06:00:42.193Z,-0.60
2019-02-24T06:03:11.973Z,-0.70
2019-02-24T06:05:41.764Z,-0.70
2019-02-24T06:08:11.656Z,-0.70
2019-02-24T06:10:41.530Z,-0.70
2019-02-24T06:13:11.260Z,-0.70
2019-02-24T06:15:41.076Z,-0.80
2019-02-24T06:18:10.958Z,-0.80
2019-02-24T06:20:40.810Z,-0.80
2019-02-24T06:23:10.562Z,-0.90
2019-02-24T06:25:40.295Z,-0.80
2019-02-24T06:28:10.129Z,-0.90
2019-02-24T06:30:40.029Z,-0.90
2019-02-24T06:33:09.980Z,-0.90
2019-02-24T06:35:39.848Z,-0.90
2019-02-24T06:38:09.720Z,-0.80
2019-02-24T06:40:39.648Z,-0.90
2019-02-24T06:43:09.623Z,-0.90
2019-02-24T06:45:39.461Z,-0.90
2019-02-24T06:48:09.299Z,-0.90
2019-02-24T06:51:00.559Z,-0.80
2019-02-24T06:53:30.362Z,-0.80
2019-02-24T06:56:01.036Z,-0.80
2019-02-24T06:58:30.832Z,-0.70
2019-02-24T07:01:00.698Z,-0.60
2019-02-24T07:03:30.524Z,-0.50
2019-02-24T07:06:00.420Z,-0.40
2019-02-24T07:08:30.180Z,-0.30
2019-02-24T07:11:00.429Z,-0.40
2019-02-24T07:13:30.512Z,-0.40
2019-02-24T07:16:00.814Z,-0.30
2019-02-24T07:18:31.711Z,-0.30
2019-02-24T07:21:02.859Z,-0.20
2019-02-24T07:23:32.986Z,-0.10
2019-02-24T07:26:02.809Z,0.00
2019-02-24T07:28:33.098Z,0.10
2019-02-24T07:31:02.865Z,0.20
2019-02-24T07:33:32.724Z,0.30
2019-02-24T07:36:02.576Z,0.40
2019-02-24T07:38:32.426Z,0.50
2019-02-24T07:41:02.259Z,0.60
2019-02-24T07:43:32.171Z,0.60
2019-02-24T07:46:02.011Z,0.70
2019-02-24T07:48:31.976Z,0.70
2019-02-24T07:51:01.969Z,0.80
2019-02-24T07:53:31.866Z,0.90
2019-02-24T07:56:01.842Z,1.00
2019-02-24T07:58:31.759Z,1.00
2019-02-24T08:01:01.678Z,1.10
2019-02-24T08:03:31.533Z,1.20
2019-02-24T08:06:01.307Z,1.30
2019-02-24T08:08:31.212Z,1.40
2019-02-24T08:11:01.018Z,1.50
2019-02-24T08:13:30.939Z,1.60
2019-02-24T08:16:00.812Z,1.80
2019-02-24T08:18:30.659Z,1.90
2019-02-24T08:21:00.657Z,2.00
2019-02-24T08:23:30.551Z,2.20
2019-02-24T08:26:00.488Z,2.30
2019-02-24T08:28:30.437Z,2.40
2019-02-24T08:31:00.299Z,2.40
2019-02-24T08:33:30.154Z,2.50
2019-02-24T08:35:59.972Z,2.60
2019-02-24T08:38:29.764Z,2.60
2019-02-24T08:40:59.582Z,2.70
2019-02-24T08:43:29.452Z,2.80
2019-02-24T08:45:59.434Z,2.90
2019-02-24T08:48:29.254Z,3.00
2019-02-24T08:50:59.004Z,3.20
2019-02-24T08:53:28.890Z,3.30
2019-02-24T08:55:58.750Z,3.40
2019-02-24T08:58:28.592Z,3.60
2019-02-24T09:00:58.472Z,3.60
2019-02-24T09:03:28.294Z,3.80
2019-02-24T09:05:58.154Z,3.90
2019-02-24T09:08:27.971Z,4.10
2019-02-24T09:10:57.878Z,4.30
2019-02-24T09:13:27.652Z,4.40
2019-02-24T09:15:57.492Z,4.40
2019-02-24T09:18:27.296Z,4.60
2019-02-24T09:20:57.141Z,4.70
2019-02-24T09:23:27.079Z,4.70
2019-02-24T09:25:56.974Z,4.70
2019-02-24T09:28:26.850Z,4.80
2019-02-24T09:31:00.796Z,4.80
2019-02-24T09:33:28.071Z,4.90
2019-02-24T09:35:59.524Z,5.00
2019-02-24T09:38:29.285Z,5.20
2019-02-24T09:41:01.175Z,5.40
2019-02-24T09:43:30.889Z,5.60
2019-02-24T09:46:00.819Z,5.90
2019-02-24T09:48:30.645Z,6.10
2019-02-24T09:51:00.509Z,6.20
2019-02-24T09:53:30.348Z,6.30
2019-02-24T09:56:00.451Z,6.40
2019-02-24T09:58:30.297Z,6.50
2019-02-24T10:01:00.252Z,6.60
2019-02-24T10:03:30.140Z,6.60
2019-02-24T10:06:00.011Z,6.70
2019-02-24T10:08:29.937Z,7.00
2019-02-24T10:10:59.899Z,7.00
2019-02-24T10:13:29.894Z,7.10
2019-02-24T10:15:59.752Z,7.20
2019-02-24T10:18:29.515Z,7.30
2019-02-24T10:20:59.327Z,7.60
2019-02-24T10:23:29.262Z,7.80
2019-02-24T10:25:59.019Z,8.00
2019-02-24T10:28:28.798Z,8.10
2019-02-24T10:30:58.609Z,8.30
2019-02-24T10:33:28.580Z,8.50
2019-02-24T10:35:58.494Z,8.60
2019-02-24T10:38:28.441Z,8.70
2019-02-24T10:40:58.390Z,8.80
2019-02-24T10:43:28.199Z,9.00
2019-02-24T10:45:58.037Z,9.20
2019-02-24T10:48:27.795Z,9.40
2019-02-24T10:50:57.631Z,9.50
2019-02-24T10:53:28.255Z,9.60
2019-02-24T10:55:58.323Z,9.80
2019-02-24T10:58:34.553Z,10.00
2019-02-24T11:00:59.889Z,10.10
2019-02-24T11:03:29.695Z,10.20
2019-02-24T11:05:59.563Z,10.40
2019-02-24T11:12:47.296Z,10.60
2019-02-24T11:15:18.775Z,10.70
2019-02-24T11:17:48.639Z,10.80
2019-02-24T11:20:18.525Z,10.90
2019-02-24T11:22:48.321Z,11.00
2019-02-24T11:25:18.581Z,11.10
2019-02-24T11:27:48.453Z,11.10
2019-02-24T11:30:18.238Z,11.20
2019-02-24T11:32:48.050Z,11.30
2019-02-24T11:35:17.964Z,11.50
2019-02-24T11:37:47.816Z,11.60
2019-02-24T11:40:17.690Z,11.50
2019-02-24T11:42:47.507Z,11.70
2019-02-24T11:45:17.271Z,11.90
2019-02-24T11:47:47.200Z,12.10
2019-02-24T11:50:16.984Z,12.10
2019-02-24T11:52:46.820Z,12.10
2019-02-24T11:55:16.588Z,12.10
2019-02-24T11:57:46.531Z,12.30
2019-02-24T12:00:16.736Z,12.40
2019-02-24T12:02:46.616Z,12.60
2019-02-24T12:05:16.605Z,12.80
2019-02-24T12:07:46.442Z,12.90
2019-02-24T12:10:16.274Z,13.00
2019-02-24T12:12:46.236Z,13.10
2019-02-24T12:15:16.092Z,13.30
2019-02-24T12:17:47.552Z,13.30
2019-02-24T12:20:17.449Z,13.40
2019-02-24T12:22:47.290Z,13.30
2019-02-24T12:25:17.096Z,13.10
2019-02-24T12:27:46.883Z,13.00
2019-02-24T12:30:16.877Z,13.20
2019-02-24T12:32:46.856Z,13.50
2019-02-24T12:35:16.685Z,13.50
2019-02-24T12:37:46.651Z,13.60
2019-02-24T12:40:16.519Z,13.90
2019-02-24T12:42:46.471Z,14.10
2019-02-24T12:45:16.315Z,14.30
2019-02-24T12:47:46.140Z,14.30
2019-02-24T12:50:16.021Z,14.20
2019-02-24T12:52:45.854Z,14.30
2019-02-24T12:55:15.788Z,14.30
2019-02-24T12:57:45.683Z,14.30
2019-02-24T13:00:18.020Z,14.50
2019-02-24T13:02:47.991Z,14.70
2019-02-24T13:05:17.898Z,15.00
2019-02-24T13:07:47.767Z,15.20
2019-02-24T13:10:17.622Z,15.40
2019-02-24T13:12:47.525Z,15.60
2019-02-24T13:15:17.351Z,15.40
2019-02-24T13:17:47.251Z,15.50
2019-02-24T13:20:17.211Z,15.80
2019-02-24T13:22:47.087Z,15.80
2019-02-24T13:25:16.996Z,16.00
2019-02-24T13:27:46.931Z,16.00
2019-02-24T13:30:17.545Z,15.90
2019-02-24T13:32:47.341Z,15.80
2019-02-24T13:35:17.208Z,16.10
2019-02-24T13:37:47.172Z,16.30
2019-02-24T13:40:17.122Z,16.30
2019-02-24T13:42:46.942Z,16.40
2019-02-24T13:45:16.891Z,16.60
2019-02-24T13:47:46.817Z,16.50
2019-02-24T13:50:16.683Z,16.50
2019-02-24T13:52:46.631Z,16.60
2019-02-24T13:55:16.423Z,16.50
2019-02-24T13:57:46.273Z,16.60
2019-02-24T14:00:16.783Z,16.50
2019-02-24T14:02:46.790Z,16.10
2019-02-24T14:05:16.572Z,16.20
2019-02-24T14:07:46.351Z,16.40
2019-02-24T14:10:16.275Z,16.20
2019-02-24T14:12:46.210Z,16.50
2019-02-24T14:15:16.155Z,16.60
2019-02-24T14:17:46.035Z,16.70
2019-02-24T14:20:15.839Z,16.90
2019-02-24T14:22:45.707Z,16.80
2019-02-24T14:25:15.637Z,16.70
2019-02-24T14:27:45.539Z,16.40
2019-02-24T14:30:15.409Z,16.40
2019-02-24T14:32:45.279Z,16.20
2019-02-24T14:35:15.512Z,16.10
2019-02-24T14:37:45.342Z,16.10
2019-02-24T14:40:15.249Z,15.70
2019-02-24T14:42:45.075Z,15.60
2019-02-24T14:45:15.978Z,15.40
2019-02-24T14:47:45.805Z,15.20
2019-02-24T14:50:15.616Z,15.00
2019-02-24T14:52:45.517Z,15.10
2019-02-24T14:55:15.404Z,15.30
2019-02-24T14:57:45.282Z,15.50
2019-02-24T15:00:15.976Z,15.60
2019-02-24T15:02:45.752Z,15.90
2019-02-24T15:05:16.664Z,16.00
2019-02-24T15:07:46.702Z,16.00
2019-02-24T15:10:17.188Z,16.00
2019-02-24T15:12:47.046Z,15.90
2019-02-24T15:15:18.418Z,15.80
2019-02-24T15:17:48.270Z,15.50
2019-02-24T15:20:18.995Z,15.30
2019-02-24T15:22:48.812Z,15.40
2019-02-24T15:25:18.688Z,15.50
2019-02-24T15:27:48.681Z,15.40
2019-02-24T15:30:25.536Z,15.30
2019-02-24T15:32:55.417Z,15.20
2019-02-24T15:35:25.286Z,15.10
2019-02-24T15:37:55.261Z,14.80
2019-02-24T15:43:33.585Z,14.30
2019-02-24T15:46:03.464Z,14.10
2019-02-24T15:48:33.288Z,14.10
2019-02-24T15:51:03.107Z,14.10
2019-02-24T15:53:32.927Z,14.10
2019-02-24T15:56:03.957Z,14.00
2019-02-24T15:58:33.883Z,13.80
2019-02-24T16:01:03.825Z,13.60
2019-02-24T16:03:33.685Z,13.50
2019-02-24T16:06:03.512Z,13.40
2019-02-24T16:08:33.317Z,13.30
2019-02-24T16:11:03.201Z,13.20
2019-02-24T16:13:32.982Z,13.00
2019-02-24T16:16:02.740Z,12.90
2019-02-24T16:18:32.569Z,12.80
2019-02-24T16:21:02.414Z,12.80
2019-02-24T16:23:32.176Z,12.60
2019-02-24T16:26:01.941Z,12.60
2019-02-24T16:28:31.855Z,12.60
2019-02-24T16:31:01.674Z,12.60
2019-02-24T16:33:31.502Z,12.50
2019-02-24T16:36:01.321Z,12.40
2019-02-24T16:38:31.149Z,12.30
2019-02-24T16:44:09.371Z,12.10
2019-02-24T16:46:39.152Z,12.00
2019-02-24T16:49:08.956Z,11.90
2019-02-24T16:51:38.714Z,11.80
2019-02-24T16:54:08.479Z,11.70
2019-02-24T16:56:38.206Z,11.70
2019-02-24T16:59:08.127Z,11.60
2019-02-24T17:01:38.055Z,11.40
2019-02-24T17:04:07.961Z,11.30
2019-02-24T17:06:37.820Z,11.10
2019-02-24T17:09:07.775Z,11.00
2019-02-24T17:11:37.580Z,10.90
2019-02-24T17:14:07.462Z,10.70
2019-02-24T17:16:37.333Z,10.50
2019-02-24T17:19:07.270Z,10.50
2019-02-24T17:21:37.176Z,10.50
2019-02-24T17:24:06.942Z,10.40
2019-02-24T17:26:36.673Z,10.20
2019-02-24T17:29:06.507Z,10.20
2019-02-24T17:31:36.391Z,10.10
2019-02-24T17:34:06.292Z,9.90
2019-02-24T17:36:36.078Z,9.70
2019-02-24T17:39:07.332Z,9.60
2019-02-24T17:41:37.243Z,9.50
2019-02-24T17:44:07.128Z,9.40
2019-02-24T17:46:37.532Z,9.20
2019-02-24T17:49:07.345Z,9.10
2019-02-24T17:51:37.151Z,9.00
2019-02-24T17:54:07.015Z,9.00
2019-02-24T17:56:36.790Z,8.90
2019-02-24T17:59:06.636Z,8.80
2019-02-24T18:01:36.586Z,8.80
2019-02-24T18:04:06.400Z,8.90
2019-02-24T18:06:36.246Z,8.80
2019-02-24T18:09:07.523Z,8.70
2019-02-24T18:11:37.410Z,8.60
2019-02-24T18:14:07.306Z,8.50
2019-02-24T18:16:37.072Z,8.50
2019-02-24T18:19:06.899Z,8.50
2019-02-24T18:21:36.767Z,8.40
2019-02-24T18:24:06.607Z,8.40
2019-02-24T18:26:36.419Z,8.30
2019-02-24T18:29:06.326Z,8.40
2019-02-24T18:31:36.214Z,8.50
2019-02-24T18:34:06.009Z,8.60
2019-02-24T18:36:35.815Z,8.50
2019-02-24T18:39:06.528Z,8.40
2019-02-24T18:41:36.362Z,8.30
2019-02-24T18:44:06.280Z,8.20
2019-02-24T18:46:36.097Z,8.20
2019-02-24T18:49:05.985Z,8.20
2019-02-24T18:51:35.947Z,8.20
2019-02-24T18:54:06.050Z,8.20
2019-02-24T18:56:36.041Z,8.10
2019-02-24T18:59:06.087Z,8.00
2019-02-24T19:01:35.951Z,7.90
2019-02-24T19:04:05.829Z,7.80
2019-02-24T19:06:39.214Z,7.70
2019-02-24T19:09:07.391Z,7.70
2019-02-24T19:11:37.356Z,7.60
2019-02-24T19:14:07.238Z,7.50
2019-02-24T19:16:37.219Z,7.50
2019-02-24T19:19:06.998Z,7.40
2019-02-24T19:21:36.876Z,7.50
2019-02-24T19:24:06.830Z,7.40
2019-02-24T19:26:36.747Z,7.30
2019-02-24T19:29:06.748Z,7.30
2019-02-24T19:31:36.759Z,7.30
2019-02-24T19:34:07.163Z,7.20
2019-02-24T19:36:37.203Z,7.20
2019-02-24T19:39:09.349Z,7.10
2019-02-24T19:41:39.238Z,7.10
2019-02-24T19:44:09.194Z,7.10
2019-02-24T19:46:39.048Z,7.00
2019-02-24T19:49:08.974Z,6.90
2019-02-24T19:51:38.931Z,6.90
2019-02-24T19:54:09.033Z,6.80
2019-02-24T19:56:39.411Z,6.80
2019-02-24T19:59:09.442Z,6.70
2019-02-24T20:01:39.350Z,6.80
2019-02-24T20:04:15.819Z,6.80
2019-02-24T20:06:41.029Z,6.80
2019-02-24T20:09:11.056Z,6.80
2019-02-24T20:11:40.994Z,6.70
2019-02-24T20:14:11.023Z,6.70
2019-02-24T20:16:41.231Z,6.70
2019-02-24T20:19:11.222Z,6.60
2019-02-24T20:21:41.172Z,6.60
2019-02-24T20:24:11.062Z,6.50
2019-02-24T20:26:41.413Z,6.40
2019-02-24T20:29:11.315Z,6.50
2019-02-24T20:31:41.308Z,6.40
2019-02-24T20:34:11.350Z,6.30
2019-02-24T20:36:41.495Z,6.20
2019-02-24T20:39:11.747Z,6.30
2019-02-24T20:41:41.958Z,6.20
2019-02-24T20:44:12.132Z,6.10
2019-02-24T20:46:42.093Z,6.10
2019-02-24T20:49:11.983Z,5.90
2019-02-24T20:51:41.914Z,5.80
2019-02-24T20:54:11.875Z,5.90
2019-02-24T20:56:41.821Z,5.90
2019-02-24T20:59:11.752Z,5.80
2019-02-24T21:01:41.658Z,5.70
2019-02-24T21:04:11.474Z,5.60
2019-02-24T21:06:41.389Z,5.70
2019-02-24T21:09:11.393Z,5.60
2019-02-24T21:11:41.331Z,5.50
2019-02-24T21:14:11.226Z,5.30
2019-02-24T21:16:41.092Z,5.20
2019-02-24T21:19:10.968Z,5.20
2019-02-24T21:21:40.781Z,5.10
2019-02-24T21:24:10.737Z,5.00
2019-02-24T21:26:40.642Z,4.90
2019-02-24T21:29:10.833Z,4.80
2019-02-24T21:31:40.988Z,4.80
2019-02-24T21:34:10.837Z,4.70
2019-02-24T21:36:40.849Z,4.70
2019-02-24T21:39:11.124Z,4.80
2019-02-24T21:41:41.138Z,4.70
2019-02-24T21:44:11.013Z,4.60
2019-02-24T21:46:40.890Z,4.50
2019-02-24T21:49:10.774Z,4.50
2019-02-24T21:51:40.663Z,4.40
2019-02-24T21:54:10.649Z,4.30
2019-02-24T21:56:40.625Z,4.20
2019-02-24T21:59:10.553Z,4.10
2019-02-24T22:01:40.915Z,4.10
2019-02-24T22:04:10.788Z,4.10
2019-02-24T22:06:40.653Z,4.00
2019-02-24T22:09:11.281Z,4.00
2019-02-24T22:11:41.247Z,3.90
2019-02-24T22:14:11.244Z,3.80
2019-02-24T22:16:41.233Z,3.80
2019-02-24T22:19:11.231Z,3.70
2019-02-24T22:21:41.299Z,3.60
2019-02-24T22:24:11.230Z,3.60
2019-02-24T22:26:44.145Z,3.80
2019-02-24T22:29:14.673Z,3.80
2019-02-24T22:31:44.662Z,3.80
2019-02-24T22:34:14.527Z,3.80
2019-02-24T22:36:44.663Z,3.70
2019-02-24T22:39:14.687Z,3.60
2019-02-24T22:41:44.587Z,3.70
2019-02-24T22:44:14.636Z,3.70
2019-02-24T22:46:46.144Z,3.60
2019-02-24T22:49:16.111Z,3.50
2019-02-24T22:51:45.941Z,3.50
2019-02-24T22:54:15.925Z,3.50
2019-02-24T22:56:45.795Z,3.40
2019-02-24T22:59:15.689Z,3.40
2019-02-24T23:01:47.044Z,3.50
2019-02-24T23:04:17.127Z,3.40
2019-02-24T23:06:47.001Z,3.30
2019-02-24T23:09:21.712Z,3.20
2019-02-24T23:11:51.580Z,3.10
2019-02-24T23:14:21.539Z,3.00
2019-02-24T23:16:51.545Z,3.00
2019-02-24T23:19:21.424Z,3.00
2019-02-24T23:21:51.343Z,3.00
2019-02-24T23:24:21.314Z,2.90
2019-02-24T23:26:51.293Z,2.90
2019-02-24T23:29:21.093Z,3.00
2019-02-24T23:31:51.240Z,3.00
2019-02-24T23:34:40.275Z,3.00
2019-02-24T23:37:10.290Z,2.90
2019-02-24T23:39:40.262Z,2.80
2019-02-24T23:42:10.150Z,2.70
2019-02-24T23:44:40.067Z,2.60
2019-02-24T23:47:10.024Z,2.50
2019-02-24T23:49:39.921Z,2.50
2019-02-24T23:52:09.842Z,2.50
2019-02-24T23:54:41.422Z,2.50
2019-02-24T23:57:11.172Z,2.50
2019-02-24T23:59:41.142Z,2.40
